Nearby METAR Reports

 

KSJC - San Jose, California, USA
Distance from station: NE 9mi, 14km
Updated: Mon, 26-Feb-2024 12:53am MST
Overcast
Overcast
 Wind from S
Wind: S 3 mph , 6 km/h
Temperature: 55°F , 13°C
Dew Point: 46°F , 8°C
Humidity: 72%
Barometer: 30.08 inHg , 1018.6 hPa
Clouds: Overcast
Visibility: 10 miles , 16 km
Cloud details: Few Clouds 1100 ft
Few Clouds 4500 ft
Overcast 7500 ft
2024/02/26 07:53 KSJC 260753Z 17003KT 10SM FEW011 FEW045 OVC075 13/08 A3008 RMK AO2 SLP186 T01330083 402110089
KNUQ - Moffett Nas/Mtn, California, USA
Distance from station: N 9mi, 14km
Updated: Mon, 26-Feb-2024 1:15am MST
Overcast
Overcast
 Wind from SE
Wind: SE 3 mph , 6 km/h
Temperature: 54°F , 12°C
Dew Point: 48°F , 9°C
Humidity: 82%
Barometer: 30.07 inHg , 1018.3 hPa
Clouds: Overcast
Visibility: 10 miles , 16 km
Cloud details: Few Clouds 3300 ft
Overcast 7000 ft
2024/02/26 08:15 KNUQ 260815Z AUTO 14003KT 10SM FEW033 OVC070 12/09 A3007 RMK AO2
 
KPAO - Palo Alto, California, USA
Distance from station: NNW 14mi, 23km
Updated: Sun, 25-Feb-2024 9:47pm MST
NOT Current
Clear
Clear
 Wind from calm
Wind: Calm
Temperature: 52°F , 11°C
Dew Point: 46°F , 8°C
Humidity: 82%
Barometer: 30.07 inHg , 1018.3 hPa
Clouds: Clear
Visibility: 10 miles , 16 km
2024/02/26 04:47 KPAO 260447Z 00000KT 10SM SKC 11/08 A3007 RMK LAST
KRHV - San Jose/Reid, California, USA
Distance from station: ENE 12mi, 19km
Updated: Sun, 25-Feb-2024 10:55pm MST
NOT Current
Few Clouds
Few Clouds
 Wind from calm
Wind: Calm
Temperature: 54°F , 12°C
Dew Point: 46°F , 8°C
Humidity: 77%
Barometer: 30.08 inHg , 1018.6 hPa
Clouds: Few Clouds
Visibility: 10 miles , 16 km
Cloud details: Few Clouds 7000 ft
2024/02/26 05:55 KRHV 260555Z 00000KT 10SM FEW070 12/08 A3008 RMK LAST
 
KOAK - Oakland, California, USA
Distance from station: NNW 31mi, 50km
Updated: Mon, 26-Feb-2024 12:53am MST
Mostly cloudy
Mostly cloudy
 Wind from W
Wind: W 5 mph , 7 km/h
Temperature: 55°F , 13°C
Dew Point: 52°F , 11°C
Humidity: 88%
Barometer: 30.08 inHg , 1018.6 hPa
Clouds: Mostly cloudy
Visibility: 10 miles , 16 km
Cloud details: Few Clouds 1300 ft
Partly cloudy 1700 ft
Mostly cloudy 8000 ft
2024/02/26 07:53 KOAK 260753Z 28004KT 10SM FEW013 SCT017 BKN080 13/11 A3008 RMK AO2 SLP184 T01280106 401780078
KSQL - San Carlos Airpo, California, USA
Distance from station: NW 21mi, 34km
Updated: Mon, 26-Feb-2024 1:15am MST
Mostly cloudy
Mostly cloudy
 Wind from SSW
Wind: SSW 3 mph , 6 km/h
Temperature: 54°F , 12°C
Dew Point: 46°F , 8°C
Humidity: 77%
Barometer: 30.08 inHg , 1018.6 hPa
Clouds: Mostly cloudy
Visibility: 10 miles , 16 km
Cloud details: Mostly cloudy 8000 ft
2024/02/26 08:15 KSQL 260815Z AUTO 21003KT 10SM BKN080 12/08 A3008 RMK AO2
 
KSFO - San Francisco, California, USA
Distance from station: NW 30mi, 49km
Updated: Mon, 26-Feb-2024 12:56am MST
Mostly cloudy
Mostly cloudy
 Wind from WSW
Wind: WSW 6 mph , 9 km/h
Temperature: 54°F , 12°C
Dew Point: 48°F , 9°C
Humidity: 82%
Barometer: 30.07 inHg , 1018.3 hPa
Clouds: Mostly cloudy
Visibility: 10 miles , 16 km
Cloud details: Few Clouds 1400 ft
Mostly cloudy 8000 ft
2024/02/26 07:56 KSFO 260756Z 24005KT 10SM FEW014 BKN080 12/09 A3007 RMK AO2 SLP183 T01220089 401830094 $
KE16 - San Martin, California, USA
Distance from station: ESE 27mi, 43km
Updated: Mon, 26-Feb-2024 1:15am MST
Overcast
Overcast
 Wind from calm
Wind: Calm
Temperature: 46°F , 8°C
Dew Point: 45°F , 7°C
Humidity: 93%
Barometer: 30.11 inHg , 1019.6 hPa
Clouds: Overcast
Visibility: 10 miles , 16 km
Cloud details: Mostly cloudy 800 ft
Overcast 7000 ft
2024/02/26 08:15 KE16 260815Z AUTO 00000KT 10SM BKN008 OVC070 08/07 A3011 RMK AO2
 
KWVI - Watsonville, California, USA
Distance from station: SSE 27mi, 44km
Updated: Sun, 25-Feb-2024 12:53pm MST
NOT Current
Clear
Clear
 Wind from WSW
Wind: WSW 8 mph , 13 km/h
Barometer: 30.08 inHg , 1018.6 hPa
Clouds: Clear
Visibility: 10 miles , 16 km
2024/02/25 19:53 KWVI 251953Z AUTO 24007KT 10SM CLR A3008 RMK AO2 SLPNO $
KHAF - Half Moon Bay, California, USA
Distance from station: WNW 31mi, 50km
Updated: Mon, 26-Feb-2024 1:15am MST
Few Clouds
Few Clouds
 Wind from calm
Wind: Calm
Temperature: 50°F , 10°C
Dew Point: 50°F , 10°C
Humidity: 100%
Barometer: 30.07 inHg , 1018.3 hPa
Clouds: Few Clouds
Visibility: 8 miles , 13 km
Cloud details: Few Clouds 2300 ft
Few Clouds 7500 ft
2024/02/26 08:15 KHAF 260815Z AUTO 00000KT 8SM FEW023 FEW075 10/10 A3007 RMK AO2
 
KHWD - Hayward, California, USA
Distance from station: N 28mi, 44km
Updated: Mon, 26-Feb-2024 1:14am MST
Mostly cloudy
Mostly cloudy
 Wind from calm
Wind: Calm
Temperature: 55°F , 13°C
Dew Point: 48°F , 9°C
Humidity: 77%
Barometer: 30.07 inHg , 1018.3 hPa
Clouds: Mostly cloudy
Visibility: 10 miles , 16 km
Cloud details: Mostly cloudy 1500 ft
Mostly cloudy 8500 ft
2024/02/26 08:14 KHWD 260814Z 00000KT 10SM BKN015 BKN085 13/09 A3007 RMK AO2 T01330094
KLVK - Livermore, California, USA
Distance from station: NNE 31mi, 51km
Updated: Mon, 26-Feb-2024 12:53am MST
Overcast
Overcast
 Wind from SSW
Wind: SSW 3 mph , 6 km/h
Temperature: 52°F , 11°C
Dew Point: 46°F , 8°C
Humidity: 82%
Barometer: 30.07 inHg , 1018.3 hPa
Clouds: Overcast
Visibility: 10 miles , 16 km
Cloud details: Overcast 8000 ft
2024/02/26 07:53 KLVK 260753Z AUTO 20003KT 10SM OVC080 11/08 A3007 RMK AO2 SLP179 T01060078 402060044